createdAt,value
2018-08-07T00:02:10.207Z,22.20
2018-08-07T00:04:38.584Z,22.23
2018-08-07T00:07:07.043Z,22.19
2018-08-07T00:09:35.435Z,22.15
2018-08-07T00:12:03.799Z,22.15
2018-08-07T00:14:32.176Z,22.14
2018-08-07T00:17:00.532Z,22.12
2018-08-07T00:19:28.967Z,22.11
2018-08-07T00:21:57.349Z,22.11
2018-08-07T00:24:25.695Z,22.09
2018-08-07T00:26:54.100Z,22.09
2018-08-07T00:29:22.496Z,22.10
2018-08-07T00:31:50.872Z,22.08
2018-08-07T00:34:19.344Z,22.05
2018-08-07T00:36:47.736Z,22.05
2018-08-07T00:39:17.227Z,22.02
2018-08-07T00:41:45.601Z,21.99
2018-08-07T00:44:13.980Z,21.99
2018-08-07T00:46:42.343Z,21.98
2018-08-07T00:49:10.741Z,21.89
2018-08-07T00:51:39.090Z,21.90
2018-08-07T00:54:07.439Z,21.90
2018-08-07T00:56:35.829Z,21.86
2018-08-07T00:59:04.536Z,21.82
2018-08-07T01:01:32.912Z,21.84
2018-08-07T01:04:01.307Z,21.84
2018-08-07T01:06:29.682Z,21.77
2018-08-07T01:08:58.052Z,21.69
2018-08-07T01:11:26.412Z,21.68
2018-08-07T01:13:54.754Z,21.67
2018-08-07T01:16:23.127Z,21.66
2018-08-07T01:18:51.541Z,21.62
2018-08-07T01:21:19.960Z,21.58
2018-08-07T01:23:48.356Z,21.56
2018-08-07T01:26:16.704Z,21.55
2018-08-07T01:28:45.086Z,21.53
2018-08-07T01:31:13.435Z,21.47
2018-08-07T01:33:41.816Z,21.41
2018-08-07T01:36:10.194Z,21.44
2018-08-07T01:38:38.572Z,21.39
2018-08-07T01:41:06.982Z,21.39
2018-08-07T01:43:35.359Z,21.38
2018-08-07T01:46:03.740Z,21.37
2018-08-07T01:48:32.119Z,21.36
2018-08-07T01:51:00.462Z,21.33
2018-08-07T01:53:28.813Z,21.28
2018-08-07T01:56:02.888Z,21.24
2018-08-07T01:58:31.292Z,21.21
2018-08-07T02:00:59.641Z,21.18
2018-08-07T02:03:28.030Z,21.19
2018-08-07T02:05:56.373Z,21.17
2018-08-07T02:08:24.748Z,21.16
2018-08-07T02:10:53.100Z,21.15
2018-08-07T02:13:21.511Z,21.11
2018-08-07T02:15:49.863Z,21.06
2018-08-07T02:18:18.269Z,21.03
2018-08-07T02:20:46.619Z,21.06
2018-08-07T02:23:15.028Z,21.05
2018-08-07T02:25:43.374Z,21.02
2018-08-07T02:28:11.749Z,21.01
2018-08-07T02:30:40.094Z,21.02
2018-08-07T02:33:08.481Z,21.02
2018-08-07T02:35:36.854Z,20.93
2018-08-07T02:38:05.234Z,20.89
2018-08-07T02:40:33.615Z,20.83
2018-08-07T02:43:01.961Z,20.81
2018-08-07T02:46:54.750Z,20.82
2018-08-07T02:49:23.195Z,20.75
2018-08-07T02:51:51.574Z,20.74
2018-08-07T02:54:19.981Z,20.72
2018-08-07T02:56:48.334Z,20.70
2018-08-07T02:59:16.711Z,20.66
2018-08-07T03:01:45.092Z,20.66
2018-08-07T03:04:13.473Z,20.67
2018-08-07T03:06:41.904Z,20.63
2018-08-07T03:09:11.313Z,20.58
2018-08-07T03:11:39.806Z,20.56
2018-08-07T03:14:08.678Z,20.48
2018-08-07T03:16:37.072Z,20.51
2018-08-07T03:19:05.552Z,20.50
2018-08-07T03:21:33.900Z,20.45
2018-08-07T03:24:02.282Z,20.44
2018-08-07T03:26:30.686Z,20.46
2018-08-07T03:28:59.143Z,20.42
2018-08-07T03:31:27.581Z,20.40
2018-08-07T03:33:56.281Z,20.38
2018-08-07T03:36:24.755Z,20.36
2018-08-07T03:38:53.172Z,20.42
2018-08-07T03:41:21.577Z,20.35
2018-08-07T03:43:50.037Z,20.40
2018-08-07T03:46:18.434Z,20.35
2018-08-07T03:48:46.859Z,20.37
2018-08-07T03:51:15.302Z,20.33
2018-08-07T03:53:43.745Z,20.27
2018-08-07T03:56:12.124Z,20.19
2018-08-07T03:58:40.645Z,20.19
2018-08-07T04:01:09.094Z,20.16
2018-08-07T04:03:37.531Z,20.14
2018-08-07T04:06:06.051Z,20.17
2018-08-07T04:08:34.475Z,20.13
2018-08-07T04:11:02.984Z,20.11
2018-08-07T04:13:31.468Z,20.09
2018-08-07T04:15:59.881Z,20.06
2018-08-07T04:18:28.291Z,20.08
2018-08-07T04:20:57.145Z,20.13
2018-08-07T04:23:25.599Z,20.09
2018-08-07T04:25:53.976Z,20.07
2018-08-07T04:28:22.404Z,20.10
2018-08-07T04:30:50.774Z,20.07
2018-08-07T04:33:19.177Z,20.11
2018-08-07T04:35:47.601Z,20.11
2018-08-07T04:38:15.985Z,20.12
2018-08-07T04:40:44.460Z,20.15
2018-08-07T04:43:12.891Z,20.20
2018-08-07T04:45:41.350Z,20.19
2018-08-07T04:48:09.817Z,20.24
2018-08-07T04:50:38.207Z,20.28
2018-08-07T04:53:06.612Z,20.25
2018-08-07T04:55:34.994Z,20.33
2018-08-07T04:58:03.443Z,20.36
2018-08-07T05:00:31.825Z,20.39
2018-08-07T05:03:00.239Z,20.44
2018-08-07T05:05:28.712Z,20.51
2018-08-07T05:07:57.145Z,20.57
2018-08-07T05:10:25.641Z,20.64
2018-08-07T05:12:54.074Z,20.74
2018-08-07T05:15:22.503Z,20.77
2018-08-07T05:17:51.014Z,20.82
2018-08-07T05:20:19.380Z,20.90
2018-08-07T05:22:47.827Z,20.95
2018-08-07T05:25:16.261Z,20.98
2018-08-07T05:27:44.713Z,21.06
2018-08-07T05:30:14.692Z,21.06
2018-08-07T05:32:43.354Z,21.10
2018-08-07T05:35:12.862Z,21.10
2018-08-07T05:37:41.335Z,21.20
2018-08-07T05:40:10.734Z,21.29
2018-08-07T05:42:39.576Z,21.34
2018-08-07T05:45:09.436Z,21.44
2018-08-07T05:47:37.881Z,21.55
2018-08-07T05:50:09.277Z,21.64
2018-08-07T05:52:37.722Z,21.73
2018-08-07T05:55:06.188Z,21.82
2018-08-07T05:57:34.580Z,21.94
2018-08-07T06:00:03.158Z,22.00
2018-08-07T06:03:55.982Z,22.01
2018-08-07T06:06:24.418Z,22.20
2018-08-07T06:08:52.850Z,22.34
2018-08-07T06:11:21.256Z,22.40
2018-08-07T06:13:49.670Z,22.47
2018-08-07T06:16:18.080Z,22.53
2018-08-07T06:18:46.505Z,22.66
2018-08-07T06:21:14.923Z,22.70
2018-08-07T06:23:43.337Z,22.90
2018-08-07T06:26:11.730Z,23.02
2018-08-07T06:28:40.174Z,23.16
2018-08-07T06:31:08.532Z,23.39
2018-08-07T06:33:37.021Z,23.46
2018-08-07T06:36:05.503Z,23.63
2018-08-07T06:38:33.907Z,23.82
2018-08-07T06:41:02.319Z,24.02
2018-08-07T06:43:30.796Z,24.29
2018-08-07T06:45:59.279Z,24.47
2018-08-07T06:48:27.640Z,24.69
2018-08-07T06:50:56.046Z,25.02
2018-08-07T06:53:24.419Z,25.28
2018-08-07T06:55:52.830Z,25.61
2018-08-07T06:58:21.248Z,25.95
2018-08-07T07:00:49.654Z,26.28
2018-08-07T07:03:18.034Z,26.55
2018-08-07T07:05:46.842Z,26.77
2018-08-07T07:08:15.201Z,27.29
2018-08-07T07:10:43.575Z,27.57
2018-08-07T07:13:12.058Z,27.43
2018-08-07T07:15:40.517Z,28.03
2018-08-07T07:18:08.938Z,28.10
2018-08-07T07:20:37.357Z,28.46
2018-08-07T07:23:05.787Z,28.82
2018-08-07T07:25:34.280Z,29.18
2018-08-07T07:28:02.693Z,29.39
2018-08-07T07:30:31.103Z,30.07
2018-08-07T07:32:59.526Z,29.76
2018-08-07T07:35:27.960Z,30.77
2018-08-07T07:37:56.360Z,31.43
2018-08-07T07:40:24.727Z,32.16
2018-08-07T07:42:53.080Z,32.75
2018-08-07T07:45:21.558Z,33.56
2018-08-07T07:47:50.028Z,33.13
2018-08-07T07:50:19.979Z,34.35
2018-08-07T07:52:48.485Z,34.90
2018-08-07T07:55:17.840Z,34.67
2018-08-07T07:57:46.303Z,36.04
2018-08-07T08:00:21.578Z,37.01
2018-08-07T08:02:50.340Z,36.67
2018-08-07T08:05:18.972Z,37.54
2018-08-07T08:07:47.273Z,38.50
2018-08-07T08:10:15.783Z,38.75
2018-08-07T08:12:44.208Z,38.19
2018-08-07T08:15:14.650Z,38.32
2018-08-07T08:17:43.799Z,39.04
2018-08-07T08:20:16.723Z,38.59
2018-08-07T08:22:45.090Z,40.79
2018-08-07T08:25:13.483Z,40.79
2018-08-07T08:27:42.040Z,40.76
2018-08-07T08:30:13.001Z,40.50
2018-08-07T08:32:41.630Z,40.42
2018-08-07T08:35:12.213Z,41.04
2018-08-07T08:37:41.178Z,42.49
2018-08-07T08:40:12.405Z,42.03
2018-08-07T08:42:41.362Z,42.65
2018-08-07T08:45:17.971Z,41.68
2018-08-07T08:47:47.534Z,41.99
2018-08-07T08:50:17.390Z,41.89
2018-08-07T08:52:45.886Z,44.12
2018-08-07T08:55:14.482Z,42.83
2018-08-07T08:57:44.130Z,42.07
2018-08-07T09:00:21.997Z,42.71
2018-08-07T09:02:50.432Z,43.96
2018-08-07T09:05:18.855Z,43.26
2018-08-07T09:07:47.294Z,42.69
2018-08-07T09:10:19.061Z,42.38
2018-08-07T09:12:47.665Z,42.39
2018-08-07T09:15:16.193Z,42.84
2018-08-07T09:17:44.610Z,43.71
2018-08-07T09:20:20.288Z,41.57
2018-08-07T09:22:48.701Z,43.94
2018-08-07T09:25:17.399Z,44.04
2018-08-07T09:27:45.890Z,44.08
2018-08-07T09:30:16.912Z,43.50
2018-08-07T09:32:46.269Z,42.62
2018-08-07T09:35:15.464Z,44.08
2018-08-07T09:37:44.018Z,44.38
2018-08-07T09:40:14.285Z,44.65
2018-08-07T09:42:43.760Z,45.13
2018-08-07T09:45:15.705Z,45.24
2018-08-07T09:47:44.931Z,45.61
2018-08-07T09:50:14.441Z,46.04
2018-08-07T09:52:43.297Z,45.42
2018-08-07T09:55:11.779Z,45.88
2018-08-07T09:57:40.159Z,46.50
2018-08-07T10:00:21.383Z,45.71
2018-08-07T10:02:51.289Z,46.56
2018-08-07T10:05:21.087Z,46.35
2018-08-07T10:07:50.113Z,46.13
2018-08-07T10:10:18.792Z,46.08
2018-08-07T10:12:47.472Z,46.66
2018-08-07T10:15:16.150Z,47.30
2018-08-07T10:17:44.637Z,45.15
2018-08-07T10:20:13.700Z,45.05
2018-08-07T10:22:42.414Z,45.76
2018-08-07T10:25:12.949Z,46.92
2018-08-07T10:27:42.858Z,46.71
2018-08-07T10:30:15.538Z,45.54
2018-08-07T10:32:43.992Z,45.82
2018-08-07T10:35:12.914Z,44.98
2018-08-07T10:37:42.298Z,46.47
2018-08-07T10:40:12.530Z,45.33
2018-08-07T10:42:40.947Z,45.67
2018-08-07T10:45:11.736Z,46.45
2018-08-07T10:47:40.581Z,46.71
2018-08-07T10:50:15.048Z,46.67
2018-08-07T10:52:49.655Z,47.51
2018-08-07T10:55:18.675Z,46.58
2018-08-07T10:57:48.444Z,45.46
2018-08-07T11:00:20.136Z,42.91
2018-08-07T11:02:49.740Z,43.21
2018-08-07T11:05:18.965Z,42.36
2018-08-07T11:07:47.454Z,41.61
2018-08-07T11:10:16.336Z,40.66
2018-08-07T11:12:44.945Z,40.60
2018-08-07T11:15:16.440Z,39.42
2018-08-07T11:17:45.253Z,38.69
2018-08-07T11:20:14.344Z,38.17
2018-08-07T11:22:43.968Z,37.04
2018-08-07T11:25:12.356Z,36.94
2018-08-07T11:27:40.717Z,36.87
2018-08-07T11:30:13.503Z,36.53
2018-08-07T11:32:42.075Z,36.39
2018-08-07T11:35:10.717Z,36.01
2018-08-07T11:37:40.633Z,36.00
2018-08-07T11:40:11.826Z,35.21
2018-08-07T11:42:40.203Z,35.08
2018-08-07T11:45:11.259Z,35.06
2018-08-07T11:47:39.727Z,34.78
2018-08-07T11:50:10.564Z,34.60
2018-08-07T11:52:39.258Z,34.43
2018-08-07T11:55:08.512Z,34.43
2018-08-07T11:57:37.240Z,34.06
2018-08-07T12:00:11.047Z,34.11
2018-08-07T12:02:39.456Z,33.92
2018-08-07T12:05:08.255Z,33.76
2018-08-07T12:07:37.022Z,33.78
2018-08-07T12:10:06.125Z,33.63
2018-08-07T12:12:34.511Z,33.30
2018-08-07T12:15:02.920Z,33.05
2018-08-07T12:17:31.426Z,33.33
2018-08-07T12:20:34.782Z,33.26
2018-08-07T12:23:03.209Z,33.00
2018-08-07T12:25:31.681Z,33.02
2018-08-07T12:28:00.124Z,32.61
2018-08-07T12:30:29.701Z,32.35
2018-08-07T12:32:58.377Z,32.38
2018-08-07T12:35:26.770Z,32.41
2018-08-07T12:37:55.198Z,32.57
2018-08-07T12:40:26.269Z,32.85
2018-08-07T12:42:57.400Z,32.88
2018-08-07T12:45:25.869Z,32.78
2018-08-07T12:47:54.404Z,32.57
2018-08-07T12:50:22.783Z,32.42
2018-08-07T12:52:51.188Z,32.87
2018-08-07T12:55:21.045Z,32.76
2018-08-07T12:57:49.851Z,32.54
2018-08-07T13:00:32.995Z,32.37
2018-08-07T13:03:01.380Z,32.34
2018-08-07T13:05:29.770Z,32.39
2018-08-07T13:07:58.159Z,31.97
2018-08-07T13:10:26.989Z,32.38
2018-08-07T13:12:56.241Z,32.63
2018-08-07T13:15:24.654Z,32.83
2018-08-07T13:17:53.089Z,32.92
2018-08-07T13:20:21.515Z,32.94
2018-08-07T13:22:49.908Z,32.83
2018-08-07T13:25:20.460Z,32.61
2018-08-07T13:27:48.884Z,32.69
2018-08-07T13:30:23.688Z,32.76
2018-08-07T13:32:52.053Z,32.82
2018-08-07T13:35:20.526Z,32.82
2018-08-07T13:37:49.911Z,32.31
2018-08-07T13:40:19.619Z,32.32
2018-08-07T13:42:48.001Z,32.45
2018-08-07T13:45:18.947Z,32.21
2018-08-07T13:47:47.343Z,32.30
2018-08-07T13:50:18.027Z,32.33
2018-08-07T13:52:46.943Z,32.63
2018-08-07T13:55:16.553Z,32.84
2018-08-07T13:57:45.444Z,32.90
2018-08-07T14:00:17.916Z,32.79
2018-08-07T14:02:47.113Z,32.55
2018-08-07T14:05:16.428Z,32.77
2018-08-07T14:07:45.300Z,32.97
2018-08-07T14:10:14.624Z,33.08
2018-08-07T14:12:43.262Z,33.13
2018-08-07T14:15:13.517Z,33.04
2018-08-07T14:17:42.911Z,32.95
2018-08-07T14:20:12.631Z,33.10
2018-08-07T14:22:41.245Z,33.11
2018-08-07T14:25:13.520Z,32.90
2018-08-07T14:27:42.034Z,32.63
2018-08-07T14:30:14.231Z,32.59
2018-08-07T14:32:42.611Z,32.55
2018-08-07T14:35:11.394Z,32.47
2018-08-07T14:37:41.798Z,32.64
2018-08-07T14:40:11.756Z,32.50
2018-08-07T14:42:41.760Z,32.38
2018-08-07T14:45:12.414Z,32.22
2018-08-07T14:47:41.616Z,32.47
2018-08-07T14:50:12.980Z,32.85
2018-08-07T14:52:41.924Z,32.97
2018-08-07T14:55:11.236Z,32.99
2018-08-07T14:57:40.239Z,32.98
2018-08-07T15:00:12.173Z,33.00
2018-08-07T15:02:40.625Z,33.02
2018-08-07T15:05:09.944Z,33.17
2018-08-07T15:07:38.680Z,33.36
2018-08-07T15:10:09.641Z,33.40
2018-08-07T15:12:38.081Z,33.43
2018-08-07T15:15:09.160Z,33.44
2018-08-07T15:17:37.540Z,33.40
2018-08-07T15:20:06.870Z,33.34
2018-08-07T15:22:35.277Z,33.37
2018-08-07T15:25:03.739Z,33.38
2018-08-07T15:27:32.116Z,33.31
2018-08-07T15:30:00.456Z,33.19
2018-08-07T15:32:28.875Z,33.38
2018-08-07T15:34:57.303Z,33.32
2018-08-07T15:37:25.723Z,33.33
2018-08-07T15:39:54.120Z,33.07
2018-08-07T15:42:22.589Z,33.13
2018-08-07T15:44:50.968Z,33.23
2018-08-07T15:47:19.418Z,33.27
2018-08-07T15:49:47.831Z,33.28
2018-08-07T15:52:16.233Z,33.45
2018-08-07T15:54:44.659Z,33.44
2018-08-07T15:57:13.088Z,33.39
2018-08-07T15:59:41.548Z,33.42
2018-08-07T16:02:09.957Z,33.39
2018-08-07T16:04:38.545Z,33.40
2018-08-07T16:07:06.992Z,33.41
2018-08-07T16:09:35.508Z,33.31
2018-08-07T16:12:04.363Z,33.19
2018-08-07T16:14:32.751Z,33.22
2018-08-07T16:17:01.203Z,33.29
2018-08-07T16:19:29.630Z,33.31
2018-08-07T16:21:57.983Z,33.38
2018-08-07T16:24:26.394Z,33.27
2018-08-07T16:26:54.945Z,33.31
2018-08-07T16:29:23.435Z,33.30
2018-08-07T16:31:52.106Z,33.31
2018-08-07T16:34:20.528Z,33.30
2018-08-07T16:36:48.984Z,33.30
2018-08-07T16:39:17.521Z,33.28
2018-08-07T16:41:45.935Z,33.44
2018-08-07T16:44:14.323Z,33.31
2018-08-07T16:46:42.692Z,33.37
2018-08-07T16:49:11.070Z,33.29
2018-08-07T16:51:39.483Z,33.34
2018-08-07T16:54:07.934Z,33.33
2018-08-07T16:56:36.355Z,33.54
2018-08-07T16:59:04.929Z,33.32
2018-08-07T17:01:33.335Z,33.34
2018-08-07T17:04:01.858Z,33.29
2018-08-07T17:06:30.272Z,33.41
2018-08-07T17:08:58.718Z,33.42
2018-08-07T17:11:27.184Z,33.35
2018-08-07T17:13:55.674Z,33.29
2018-08-07T17:16:24.169Z,33.26
2018-08-07T17:18:52.580Z,33.30
2018-08-07T17:21:20.988Z,33.15
2018-08-07T17:23:49.449Z,33.22
2018-08-07T17:26:17.880Z,33.14
2018-08-07T17:28:46.349Z,33.18
2018-08-07T17:31:14.740Z,33.17
2018-08-07T17:33:43.133Z,33.11
2018-08-07T17:36:11.543Z,33.07
2018-08-07T17:40:05.281Z,33.09
2018-08-07T17:42:33.725Z,33.00
2018-08-07T17:45:02.106Z,32.99
2018-08-07T17:47:30.521Z,32.97
2018-08-07T17:49:58.960Z,32.85
2018-08-07T17:52:27.391Z,32.79
2018-08-07T17:54:55.827Z,32.84
2018-08-07T17:57:24.207Z,32.73
2018-08-07T17:59:53.068Z,32.74
2018-08-07T18:02:21.440Z,32.68
2018-08-07T18:04:49.926Z,32.67
2018-08-07T18:07:18.461Z,32.60
2018-08-07T18:09:46.891Z,32.57
2018-08-07T18:12:15.412Z,32.48
2018-08-07T18:14:44.572Z,32.42
2018-08-07T18:17:13.152Z,32.44
2018-08-07T18:19:41.598Z,32.39
2018-08-07T18:22:10.356Z,32.34
2018-08-07T18:24:38.808Z,32.25
2018-08-07T18:27:07.421Z,32.18
2018-08-07T18:29:36.000Z,32.12
2018-08-07T18:32:04.517Z,32.11
2018-08-07T18:34:32.968Z,31.98
2018-08-07T18:37:01.403Z,31.92
2018-08-07T18:39:29.882Z,31.87
2018-08-07T18:41:58.304Z,31.81
2018-08-07T18:44:26.750Z,31.73
2018-08-07T18:46:55.162Z,31.62
2018-08-07T18:49:23.924Z,31.58
2018-08-07T18:51:53.505Z,31.53
2018-08-07T18:54:21.937Z,31.47
2018-08-07T18:56:51.025Z,31.39
2018-08-07T18:59:19.552Z,31.38
2018-08-07T19:01:48.010Z,31.28
2018-08-07T19:04:16.484Z,31.26
2018-08-07T19:06:45.384Z,31.23
2018-08-07T19:09:14.642Z,31.19
2018-08-07T19:11:43.181Z,31.11
2018-08-07T19:14:11.729Z,31.06
2018-08-07T19:16:40.222Z,31.10
2018-08-07T19:19:08.634Z,31.00
2018-08-07T19:21:37.181Z,30.97
2018-08-07T19:24:05.598Z,30.92
2018-08-07T19:26:34.146Z,30.89
2018-08-07T19:29:02.579Z,30.88
2018-08-07T19:31:31.006Z,30.84
2018-08-07T19:33:59.520Z,30.77
2018-08-07T19:36:28.071Z,30.73
2018-08-07T19:38:56.550Z,30.70
2018-08-07T19:41:24.968Z,30.66
2018-08-07T19:43:53.471Z,30.62
2018-08-07T19:46:21.927Z,30.59
2018-08-07T19:48:50.984Z,30.52
2018-08-07T19:51:19.783Z,30.45
2018-08-07T19:53:48.436Z,30.40
2018-08-07T19:56:17.432Z,30.36
2018-08-07T19:58:45.870Z,30.29
2018-08-07T20:01:14.253Z,30.26
2018-08-07T20:03:42.754Z,30.20
2018-08-07T20:06:11.208Z,30.15
2018-08-07T20:08:39.612Z,30.11
2018-08-07T20:11:08.041Z,30.04
2018-08-07T20:13:36.425Z,29.98
2018-08-07T20:16:04.936Z,29.95
2018-08-07T20:18:33.721Z,29.92
2018-08-07T20:21:02.652Z,29.90
2018-08-07T20:23:31.038Z,29.82
2018-08-07T20:26:00.118Z,29.82
2018-08-07T20:28:28.488Z,29.71
2018-08-07T20:30:57.524Z,29.71
2018-08-07T20:33:25.917Z,29.71
2018-08-07T20:35:54.323Z,29.68
2018-08-07T20:38:22.723Z,29.61
2018-08-07T20:40:51.108Z,29.57
2018-08-07T20:43:19.488Z,29.55
2018-08-07T20:45:47.938Z,29.49
2018-08-07T20:48:16.830Z,29.45
2018-08-07T20:50:46.808Z,29.40
2018-08-07T20:53:15.347Z,29.40
2018-08-07T20:55:43.913Z,29.32
2018-08-07T20:58:12.291Z,29.26
2018-08-07T21:00:40.671Z,29.20
2018-08-07T21:03:09.042Z,29.18
2018-08-07T21:05:37.524Z,29.11
2018-08-07T21:08:05.969Z,29.09
2018-08-07T21:10:34.385Z,29.01
2018-08-07T21:13:02.721Z,28.96
2018-08-07T21:15:31.121Z,28.94
2018-08-07T21:17:59.489Z,28.87
2018-08-07T21:20:28.373Z,28.77
2018-08-07T21:22:57.256Z,28.73
2018-08-07T21:25:25.651Z,28.67
2018-08-07T21:27:55.827Z,28.65
2018-08-07T21:30:26.191Z,28.58
2018-08-07T21:32:54.611Z,28.53
2018-08-07T21:35:23.036Z,28.50
2018-08-07T21:37:51.576Z,28.46
2018-08-07T21:40:21.249Z,28.45
2018-08-07T21:42:50.569Z,28.43
2018-08-07T21:45:19.752Z,28.38
2018-08-07T21:47:48.365Z,28.36
2018-08-07T21:50:18.667Z,28.33
2018-08-07T21:52:47.063Z,28.26
2018-08-07T21:55:16.699Z,28.23
2018-08-07T21:57:45.281Z,28.19
2018-08-07T22:00:16.532Z,28.12
2018-08-07T22:02:45.413Z,28.12
2018-08-07T22:05:13.985Z,28.08
2018-08-07T22:07:42.462Z,28.03
2018-08-07T22:10:17.602Z,27.99
2018-08-07T22:12:46.412Z,27.94
2018-08-07T22:15:15.729Z,27.90
2018-08-07T22:17:45.424Z,27.86
2018-08-07T22:20:14.115Z,27.80
2018-08-07T22:22:43.259Z,27.76
2018-08-07T22:25:11.918Z,27.71
2018-08-07T22:27:40.475Z,27.69
2018-08-07T22:30:13.843Z,27.67
2018-08-07T22:32:42.329Z,27.65
2018-08-07T22:35:11.054Z,27.59
2018-08-07T22:37:39.859Z,27.56
2018-08-07T22:40:09.024Z,27.54
2018-08-07T22:42:37.854Z,27.52
2018-08-07T22:45:07.980Z,27.47
2018-08-07T22:47:36.394Z,27.44
2018-08-07T22:50:05.680Z,27.39
2018-08-07T22:52:34.042Z,27.37
2018-08-07T22:55:02.475Z,27.34
2018-08-07T22:57:30.864Z,27.34
2018-08-07T22:59:59.348Z,27.27
2018-08-07T23:02:27.661Z,27.24
2018-08-07T23:04:56.046Z,27.22
2018-08-07T23:07:24.417Z,27.19
2018-08-07T23:09:52.995Z,27.15
2018-08-07T23:12:21.349Z,27.13
2018-08-07T23:14:49.726Z,27.10
2018-08-07T23:17:18.172Z,27.07
2018-08-07T23:19:46.566Z,27.03
2018-08-07T23:22:14.911Z,26.99
2018-08-07T23:24:43.251Z,26.95
2018-08-07T23:27:11.822Z,26.94
2018-08-07T23:29:40.243Z,26.92
2018-08-07T23:32:08.648Z,26.89
2018-08-07T23:34:37.541Z,26.83
2018-08-07T23:37:06.037Z,26.80
2018-08-07T23:39:34.397Z,26.79
2018-08-07T23:42:03.013Z,26.79
2018-08-07T23:44:31.359Z,26.74
2018-08-07T23:46:59.709Z,26.72
2018-08-07T23:49:28.221Z,26.69
2018-08-07T23:51:56.568Z,26.68
2018-08-07T23:54:24.980Z,26.62
2018-08-07T23:56:53.352Z,26.60
2018-08-07T23:59:21.710Z,26.54
